Terminal Aerodrome Forecast
Issued by NWS Caribou, ME

Home | Current Version | Previous Version | Text Only | Print | Product List | Glossary On
Versions: 1 2 3 4 5 6 7 8 9 10 11 12 13 14 15 16 17 18 19 20 21
000
FTUS41 KCAR 051734
TAFBGR
TAF
KBGR 051734Z 0518/0618 03011KT 6SM -DZ OVC008
     FM052200 03013KT P6SM OVC008
     FM060000 03013KT 4SM -RA OVC008
     FM060400 02013KT 4SM -RA OVC003
     FM060900 36012KT P6SM OVC008
     FM061100 36011KT P6SM OVC015
     FM061300 01009KT P6SM BKN025=

USA.gov is the U.S. government's official web portal to all federal, state and local government web resources and services.